createdAt,value
2018-12-20T00:01:32.594Z,100979.55
2018-12-20T00:03:58.364Z,100979.06
2018-12-20T00:06:24.180Z,100972.39
2018-12-20T00:08:49.996Z,100978.91
2018-12-20T00:11:15.731Z,100978.42
2018-12-20T00:13:41.659Z,100977.56
2018-12-20T00:16:07.417Z,100978.38
2018-12-20T00:18:33.448Z,100971.98
2018-12-20T00:20:59.354Z,100972.09
2018-12-20T00:23:25.187Z,100967.89
2018-12-20T00:25:51.017Z,100971.84
2018-12-20T00:28:16.835Z,100974.27
2018-12-20T00:30:42.781Z,100973.38
2018-12-20T00:33:08.594Z,100977.95
2018-12-20T00:35:34.322Z,100969.95
2018-12-20T00:38:00.053Z,100973.63
2018-12-20T00:40:25.865Z,100972.93
2018-12-20T00:42:51.622Z,100968.23
2018-12-20T00:45:17.464Z,100963.88
2018-12-20T00:47:43.345Z,100965.21
2018-12-20T00:50:09.231Z,100968.23
2018-12-20T00:52:35.229Z,100968.86
2018-12-20T00:55:01.205Z,100965.15
2018-12-20T00:57:27.129Z,100972.11
2018-12-20T00:59:53.078Z,100968.55
2018-12-20T01:02:19.029Z,100972.01
2018-12-20T01:04:44.808Z,100970.67
2018-12-20T01:07:10.647Z,100970.61
2018-12-20T01:09:36.604Z,100982.14
2018-12-20T01:12:02.472Z,100983.67
2018-12-20T01:14:28.200Z,100978.68
2018-12-20T01:16:54.116Z,100981.55
2018-12-20T01:19:19.960Z,100980.37
2018-12-20T01:21:45.909Z,100986.41
2018-12-20T01:24:11.850Z,100990.41
2018-12-20T01:26:37.667Z,100993.78
2018-12-20T01:29:03.418Z,100988.28
2018-12-20T01:31:29.265Z,100980.43
2018-12-20T01:33:55.323Z,100976.11
2018-12-20T01:36:21.351Z,100976.46
2018-12-20T01:38:47.587Z,100971.12
2018-12-20T01:41:13.553Z,100980.47
2018-12-20T01:43:39.659Z,100975.63
2018-12-20T01:46:05.605Z,100974.49
2018-12-20T01:48:31.439Z,100972.67
2018-12-20T01:50:57.272Z,100977.86
2018-12-20T01:53:23.105Z,100979.73
2018-12-20T01:55:49.097Z,100982.05
2018-12-20T01:58:14.882Z,100980.25
2018-12-20T02:00:40.621Z,100988.95
2018-12-20T02:03:06.455Z,100983.96
2018-12-20T02:05:32.171Z,100985.30
2018-12-20T02:07:58.017Z,100985.33
2018-12-20T02:10:23.883Z,100986.31
2018-12-20T02:12:49.812Z,100983.20
2018-12-20T02:15:15.614Z,100978.53
2018-12-20T02:17:41.611Z,100982.02
2018-12-20T02:20:07.484Z,100979.00
2018-12-20T02:22:33.329Z,100978.37
2018-12-20T02:24:59.276Z,100977.03
2018-12-20T02:27:25.108Z,100972.67
2018-12-20T02:29:51.099Z,100968.51
2018-12-20T02:32:16.971Z,100971.69
2018-12-20T02:34:42.725Z,100970.00
2018-12-20T02:37:08.727Z,100968.67
2018-12-20T02:39:34.573Z,100962.34
2018-12-20T02:42:00.682Z,100964.31
2018-12-20T02:44:26.810Z,100957.80
2018-12-20T02:46:52.806Z,100953.61
2018-12-20T02:49:18.986Z,100951.06
2018-12-20T02:51:45.526Z,100952.59
2018-12-20T02:54:11.862Z,100962.28
2018-12-20T02:56:38.007Z,100963.08
2018-12-20T02:59:04.251Z,100961.80
2018-12-20T03:01:30.749Z,100961.11
2018-12-20T03:03:58.113Z,100955.92
2018-12-20T03:06:25.319Z,100947.76
2018-12-20T03:08:51.342Z,100948.27
2018-12-20T03:11:17.175Z,100949.60
2018-12-20T03:13:43.084Z,100955.92
2018-12-20T03:16:08.969Z,100966.26
2018-12-20T03:18:34.787Z,100958.89
2018-12-20T03:21:00.596Z,100952.91
2018-12-20T03:23:26.687Z,100949.89
2018-12-20T03:25:52.658Z,100952.21
2018-12-20T03:28:18.687Z,100943.00
2018-12-20T03:30:44.519Z,100944.20
2018-12-20T03:33:10.727Z,100938.16
2018-12-20T03:35:36.824Z,100940.55
2018-12-20T03:38:02.863Z,100937.23
2018-12-20T03:40:28.698Z,100931.58
2018-12-20T03:42:54.568Z,100935.45
2018-12-20T03:45:28.385Z,100940.63
2018-12-20T03:47:48.406Z,100938.25
2018-12-20T03:50:14.615Z,100941.27
2018-12-20T03:52:40.602Z,100941.91
2018-12-20T03:55:06.592Z,100939.80
2018-12-20T03:57:32.525Z,100928.80
2018-12-20T03:59:58.256Z,100934.36
2018-12-20T04:02:24.285Z,100931.34
2018-12-20T04:04:50.022Z,100936.62
2018-12-20T04:07:15.866Z,100940.89
2018-12-20T04:09:41.773Z,100947.00
2018-12-20T04:12:07.497Z,100940.83
2018-12-20T04:14:33.393Z,100937.75
2018-12-20T04:16:59.275Z,100945.09
2018-12-20T04:19:25.097Z,100942.74
2018-12-20T04:21:51.284Z,100941.56
2018-12-20T04:24:17.331Z,100933.72
2018-12-20T04:26:43.131Z,100939.00
2018-12-20T04:29:09.027Z,100933.66
2018-12-20T04:31:35.038Z,100938.48
2018-12-20T04:34:00.949Z,100935.53
2018-12-20T04:36:26.882Z,100936.77
2018-12-20T04:38:52.647Z,100941.63
2018-12-20T04:41:18.474Z,100943.31
2018-12-20T04:43:44.207Z,100947.80
2018-12-20T04:46:10.168Z,100945.13
2018-12-20T04:48:36.133Z,100943.69
2018-12-20T04:51:02.064Z,100934.70
2018-12-20T04:53:27.998Z,100938.41
2018-12-20T04:55:54.024Z,100932.91
2018-12-20T04:58:19.887Z,100940.45
2018-12-20T05:00:46.242Z,100944.80
2018-12-20T05:03:12.302Z,100942.95
2018-12-20T05:05:38.058Z,100942.83
2018-12-20T05:08:04.101Z,100943.66
2018-12-20T05:10:29.976Z,100948.20
2018-12-20T05:12:55.772Z,100955.28
2018-12-20T05:15:21.770Z,100948.60
2018-12-20T05:17:47.547Z,100950.28
2018-12-20T05:20:13.578Z,100945.30
2018-12-20T05:22:39.487Z,100949.99
2018-12-20T05:25:05.704Z,100950.82
2018-12-20T05:27:31.830Z,100953.84
2018-12-20T05:29:57.678Z,100951.01
2018-12-20T05:32:30.440Z,100945.19
2018-12-20T05:34:56.340Z,100941.28
2018-12-20T05:37:22.171Z,100939.25
2018-12-20T05:39:48.184Z,100936.69
2018-12-20T05:42:13.989Z,100938.95
2018-12-20T05:44:39.768Z,100940.28
2018-12-20T05:47:05.630Z,100936.15
2018-12-20T05:49:31.479Z,100932.91
2018-12-20T05:51:57.211Z,100924.23
2018-12-20T05:54:23.015Z,100924.23
2018-12-20T05:56:49.052Z,100931.68
2018-12-20T05:59:15.028Z,100941.53
2018-12-20T06:01:41.171Z,100936.00
2018-12-20T06:04:07.307Z,100932.66
2018-12-20T06:06:33.226Z,100942.52
2018-12-20T06:08:59.091Z,100937.02
2018-12-20T06:11:25.002Z,100936.56
2018-12-20T06:13:50.814Z,100937.27
2018-12-20T06:16:16.721Z,100935.11
2018-12-20T06:18:42.762Z,100932.56
2018-12-20T06:21:08.695Z,100936.62
2018-12-20T06:23:34.407Z,100938.60
2018-12-20T06:26:00.126Z,100940.80
2018-12-20T06:28:25.846Z,100938.60
2018-12-20T06:30:51.587Z,100925.59
2018-12-20T06:33:17.299Z,100928.56
2018-12-20T06:35:43.131Z,100935.58
2018-12-20T06:38:08.838Z,100934.25
2018-12-20T06:40:34.557Z,100935.05
2018-12-20T06:43:00.363Z,100936.67
2018-12-20T06:45:26.094Z,100935.14
2018-12-20T06:47:51.923Z,100938.80
2018-12-20T06:50:17.743Z,100937.81
2018-12-20T06:52:43.462Z,100935.84
2018-12-20T06:55:09.398Z,100939.50
2018-12-20T06:57:35.115Z,100928.53
2018-12-20T07:00:01.056Z,100936.25
2018-12-20T07:02:26.774Z,100941.27
2018-12-20T07:04:52.579Z,100938.31
2018-12-20T07:07:18.406Z,100943.66
2018-12-20T07:09:44.111Z,100941.17
2018-12-20T07:12:09.833Z,100939.20
2018-12-20T07:14:35.642Z,100941.73
2018-12-20T07:17:01.366Z,100942.56
2018-12-20T07:19:27.089Z,100942.41
2018-12-20T07:21:52.811Z,100939.09
2018-12-20T07:24:18.626Z,100940.30
2018-12-20T07:26:44.346Z,100949.48
2018-12-20T07:29:10.074Z,100943.85
2018-12-20T07:31:35.799Z,100946.17
2018-12-20T07:34:01.506Z,100947.98
2018-12-20T07:36:27.239Z,100949.48
2018-12-20T07:38:52.951Z,100950.66
2018-12-20T07:41:18.666Z,100951.52
2018-12-20T07:43:44.383Z,100952.85
2018-12-20T07:46:10.344Z,100949.20
2018-12-20T07:48:36.174Z,100953.04
2018-12-20T07:51:03.609Z,100952.56
2018-12-20T07:53:29.634Z,100950.72
2018-12-20T07:55:55.374Z,100948.74
2018-12-20T07:58:21.111Z,100949.44
2018-12-20T08:00:46.844Z,100950.61
2018-12-20T08:03:12.563Z,100946.31
2018-12-20T08:05:38.378Z,100945.33
2018-12-20T08:08:04.107Z,100953.88
2018-12-20T08:10:29.937Z,100950.05
2018-12-20T08:12:55.658Z,100956.73
2018-12-20T08:15:21.378Z,100949.75
2018-12-20T08:17:47.211Z,100944.06
2018-12-20T08:20:12.922Z,100954.80
2018-12-20T08:22:38.638Z,100945.64
2018-12-20T08:25:04.471Z,100944.48
2018-12-20T08:27:30.178Z,100950.05
2018-12-20T08:29:55.903Z,100956.56
2018-12-20T08:32:21.620Z,100946.86
2018-12-20T08:34:47.343Z,100950.58
2018-12-20T08:37:13.160Z,100953.94
2018-12-20T08:39:38.991Z,100956.45
2018-12-20T08:42:04.703Z,100960.45
2018-12-20T08:44:30.430Z,100950.81
2018-12-20T08:46:56.146Z,100957.19
2018-12-20T08:49:21.968Z,100953.37
2018-12-20T08:51:49.159Z,100959.11
2018-12-20T08:54:15.319Z,100961.96
2018-12-20T08:56:41.164Z,100958.13
2018-12-20T08:59:06.886Z,100966.84
2018-12-20T09:01:32.593Z,100960.34
2018-12-20T09:03:58.312Z,100969.06
2018-12-20T09:06:24.150Z,100963.58
2018-12-20T09:08:49.890Z,100965.09
2018-12-20T09:11:15.617Z,100968.11
2018-12-20T09:13:41.439Z,100966.95
2018-12-20T09:16:07.163Z,100964.97
2018-12-20T09:18:33.295Z,100972.83
2018-12-20T09:20:59.025Z,100973.69
2018-12-20T09:23:24.822Z,100964.97
2018-12-20T09:25:50.579Z,100967.99
2018-12-20T09:28:16.298Z,100966.31
2018-12-20T09:30:42.014Z,100967.69
2018-12-20T09:33:07.840Z,100969.69
2018-12-20T09:35:33.559Z,100966.02
2018-12-20T09:38:01.031Z,100961.37
2018-12-20T09:40:27.027Z,100964.22
2018-12-20T09:42:52.792Z,100963.44
2018-12-20T09:45:18.691Z,100964.77
2018-12-20T09:47:52.250Z,100958.43
2018-12-20T09:50:18.066Z,100951.87
2018-12-20T09:52:43.793Z,100955.08
2018-12-20T09:55:09.511Z,100955.42
2018-12-20T09:57:35.232Z,100947.91
2018-12-20T10:00:01.082Z,100952.75
2018-12-20T10:02:26.799Z,100953.78
2018-12-20T10:04:52.523Z,100948.09
2018-12-20T10:07:18.251Z,100947.09
2018-12-20T10:09:44.079Z,100945.11
2018-12-20T10:12:09.905Z,100945.45
2018-12-20T10:14:35.622Z,100942.73
2018-12-20T10:17:01.342Z,100945.41
2018-12-20T10:19:27.203Z,100946.61
2018-12-20T10:21:52.932Z,100942.56
2018-12-20T10:24:18.642Z,100945.58
2018-12-20T10:26:44.378Z,100939.92
2018-12-20T10:29:10.112Z,100934.75
2018-12-20T10:31:35.926Z,100933.11
2018-12-20T10:34:01.844Z,100928.75
2018-12-20T10:36:27.591Z,100926.42
2018-12-20T10:38:53.417Z,100925.42
2018-12-20T10:41:19.135Z,100918.22
2018-12-20T10:43:44.939Z,100917.06
2018-12-20T10:46:10.674Z,100906.73
2018-12-20T10:48:36.426Z,100906.08
2018-12-20T10:51:02.262Z,100901.08
2018-12-20T10:53:27.974Z,100897.78
2018-12-20T10:55:53.708Z,100893.63
2018-12-20T10:58:21.450Z,100893.48
2018-12-20T11:00:53.411Z,100889.44
2018-12-20T11:03:25.303Z,100888.24
2018-12-20T11:05:57.046Z,100885.39
2018-12-20T11:08:23.302Z,100886.73
2018-12-20T11:10:51.146Z,100882.55
2018-12-20T11:13:23.054Z,100877.02
2018-12-20T11:15:48.766Z,100877.20
2018-12-20T11:18:14.498Z,100872.22
2018-12-20T11:20:40.218Z,100872.89
2018-12-20T11:23:06.063Z,100872.44
2018-12-20T11:25:31.792Z,100871.44
2018-12-20T11:27:57.643Z,100872.64
2018-12-20T11:30:23.367Z,100862.27
2018-12-20T11:32:49.200Z,100865.43
2018-12-20T11:35:14.921Z,100864.41
2018-12-20T11:37:40.652Z,100867.42
2018-12-20T11:40:06.574Z,100861.75
2018-12-20T11:42:32.292Z,100853.09
2018-12-20T11:44:58.003Z,100860.77
2018-12-20T11:47:26.794Z,100853.73
2018-12-20T11:49:52.514Z,100859.09
2018-12-20T11:52:18.235Z,100858.61
2018-12-20T11:54:44.046Z,100851.41
2018-12-20T11:57:09.778Z,100851.41
2018-12-20T11:59:35.488Z,100845.73
2018-12-20T12:02:01.322Z,100850.27
2018-12-20T12:04:27.030Z,100844.39
2018-12-20T12:06:52.751Z,100843.73
2018-12-20T12:09:18.464Z,100839.73
2018-12-20T12:11:44.191Z,100841.56
2018-12-20T12:14:09.899Z,100829.03
2018-12-20T12:16:35.602Z,100832.03
2018-12-20T12:19:01.323Z,100829.03
2018-12-20T12:21:27.147Z,100828.69
2018-12-20T12:23:52.883Z,100831.38
2018-12-20T12:26:18.594Z,100826.19
2018-12-20T12:28:44.323Z,100823.31
2018-12-20T12:31:10.030Z,100817.00
2018-12-20T12:33:35.750Z,100818.98
2018-12-20T12:36:01.455Z,100814.80
2018-12-20T12:38:27.180Z,100822.50
2018-12-20T12:40:52.891Z,100812.63
2018-12-20T12:43:18.733Z,100813.28
2018-12-20T12:45:44.446Z,100816.13
2018-12-20T12:48:10.275Z,100814.30
2018-12-20T12:50:36.091Z,100822.34
2018-12-20T12:53:01.808Z,100811.98
2018-12-20T12:55:27.522Z,100818.98
2018-12-20T12:57:53.242Z,100814.32
2018-12-20T13:00:20.094Z,100816.66
2018-12-20T13:02:46.570Z,100811.62
2018-12-20T13:05:12.394Z,100814.80
2018-12-20T13:10:10.648Z,100804.77
2018-12-20T13:12:36.360Z,100811.32
2018-12-20T13:15:04.812Z,100812.30
2018-12-20T13:17:30.532Z,100803.27
2018-12-20T13:19:56.259Z,100806.95
2018-12-20T13:22:21.967Z,100796.91
2018-12-20T13:24:47.794Z,100802.28
2018-12-20T13:27:13.516Z,100800.76
2018-12-20T13:29:39.238Z,100804.94
2018-12-20T13:32:04.955Z,100801.59
2018-12-20T13:34:30.675Z,100800.59
2018-12-20T13:36:56.384Z,100799.92
2018-12-20T13:39:22.111Z,100796.09
2018-12-20T13:41:47.911Z,100799.26
2018-12-20T13:44:13.647Z,100800.09
2018-12-20T13:46:39.379Z,100800.59
2018-12-20T13:49:05.216Z,100800.77
2018-12-20T13:51:30.941Z,100799.25
2018-12-20T13:53:56.767Z,100793.55
2018-12-20T13:56:22.587Z,100799.25
2018-12-20T13:58:48.534Z,100797.75
2018-12-20T14:01:14.340Z,100795.59
2018-12-20T14:03:40.084Z,100795.93
2018-12-20T14:06:06.002Z,100800.25
2018-12-20T14:08:31.706Z,100796.23
2018-12-20T14:10:57.439Z,100799.09
2018-12-20T14:13:23.262Z,100793.06
2018-12-20T14:15:48.970Z,100799.59
2018-12-20T14:18:14.670Z,100800.09
2018-12-20T14:20:40.491Z,100800.27
2018-12-20T14:23:06.298Z,100803.44
2018-12-20T14:25:32.770Z,100804.78
2018-12-20T14:27:58.595Z,100806.97
2018-12-20T14:30:24.327Z,100803.62
2018-12-20T14:32:50.146Z,100807.97
2018-12-20T14:35:15.978Z,100799.59
2018-12-20T14:37:41.681Z,100803.28
2018-12-20T14:40:07.498Z,100802.94
2018-12-20T14:42:33.210Z,100808.30
2018-12-20T14:44:58.943Z,100813.17
2018-12-20T14:47:24.678Z,100808.97
2018-12-20T14:49:50.715Z,100819.36
2018-12-20T14:52:16.531Z,100817.69
2018-12-20T14:54:42.274Z,100815.16
2018-12-20T14:57:07.987Z,100817.67
2018-12-20T14:59:33.686Z,100819.02
2018-12-20T15:01:59.406Z,100824.38
2018-12-20T15:04:25.119Z,100827.05
2018-12-20T15:06:50.843Z,100823.03
2018-12-20T15:09:16.560Z,100831.59
2018-12-20T15:11:42.395Z,100827.23
2018-12-20T15:14:15.086Z,100828.05
2018-12-20T15:16:47.995Z,100835.27
2018-12-20T15:19:13.712Z,100832.41
2018-12-20T15:21:39.496Z,100837.45
2018-12-20T15:24:05.254Z,100836.28
2018-12-20T15:26:30.971Z,100834.09
2018-12-20T15:28:56.803Z,100832.75
2018-12-20T15:31:22.530Z,100836.28
2018-12-20T15:33:48.354Z,100830.59
2018-12-20T15:36:14.216Z,100831.08
2018-12-20T15:38:39.930Z,100828.72
2018-12-20T15:41:12.680Z,100832.75
2018-12-20T15:43:38.404Z,100831.91
2018-12-20T15:46:04.223Z,100824.34
2018-12-20T15:48:30.054Z,100826.03
2018-12-20T15:50:55.998Z,100821.48
2018-12-20T15:53:21.715Z,100824.67
2018-12-20T15:55:47.538Z,100825.84
2018-12-20T15:58:13.267Z,100823.66
2018-12-20T16:00:39.079Z,100818.48
2018-12-20T16:03:04.794Z,100814.12
2018-12-20T16:05:30.522Z,100817.48
2018-12-20T16:07:58.262Z,100818.50
2018-12-20T16:10:23.987Z,100813.64
2018-12-20T16:12:49.803Z,100810.11
2018-12-20T16:15:15.528Z,100820.00
2018-12-20T16:17:41.262Z,100814.64
2018-12-20T16:20:07.073Z,100816.32
2018-12-20T16:22:32.907Z,100804.92
2018-12-20T16:24:58.623Z,100809.28
2018-12-20T16:27:24.456Z,100807.80
2018-12-20T16:29:50.386Z,100804.42
2018-12-20T16:32:16.122Z,100804.28
2018-12-20T16:34:41.838Z,100801.27
2018-12-20T16:37:07.562Z,100806.96
2018-12-20T16:39:33.278Z,100800.27
2018-12-20T16:41:59.014Z,100800.59
2018-12-20T16:44:24.746Z,100808.45
2018-12-20T16:46:50.474Z,100809.45
2018-12-20T16:49:16.218Z,100800.27
2018-12-20T16:51:41.940Z,100796.24
2018-12-20T16:54:07.930Z,100804.94
2018-12-20T16:56:33.851Z,100800.92
2018-12-20T16:58:59.675Z,100797.73
2018-12-20T17:01:25.550Z,100802.27
2018-12-20T17:03:51.282Z,100796.41
2018-12-20T17:06:16.997Z,100797.25
2018-12-20T17:08:48.084Z,100806.77
2018-12-20T17:11:10.459Z,100800.25
2018-12-20T17:13:36.189Z,100800.09
2018-12-20T17:16:01.943Z,100810.11
2018-12-20T17:18:28.089Z,100804.94
2018-12-20T17:20:53.902Z,100804.27
2018-12-20T17:23:19.610Z,100808.28
2018-12-20T17:25:45.340Z,100804.61
2018-12-20T17:28:11.517Z,100799.73
2018-12-20T17:30:37.414Z,100798.25
2018-12-20T17:33:03.252Z,100807.77
2018-12-20T17:35:29.191Z,100802.27
2018-12-20T17:37:54.945Z,100802.09
2018-12-20T17:40:20.714Z,100800.23
2018-12-20T17:42:47.462Z,100798.25
2018-12-20T17:45:13.239Z,100801.41
2018-12-20T17:47:39.225Z,100808.12
2018-12-20T17:50:05.777Z,100802.27
2018-12-20T17:52:31.494Z,100806.27
2018-12-20T17:54:57.315Z,100799.91
2018-12-20T17:57:23.071Z,100801.92
2018-12-20T17:59:48.904Z,100800.59
2018-12-20T18:02:14.734Z,100803.78
2018-12-20T18:04:40.711Z,100797.91
2018-12-20T18:07:06.461Z,100788.70
2018-12-20T18:09:32.195Z,100741.27
2018-12-20T18:11:58.031Z,100782.34
2018-12-20T18:14:23.824Z,100788.87
2018-12-20T18:16:49.654Z,100777.30
2018-12-20T18:19:15.376Z,100787.52
2018-12-20T18:21:41.127Z,100783.96
2018-12-20T18:24:06.923Z,100784.96
2018-12-20T18:26:32.686Z,100784.80
2018-12-20T18:28:58.515Z,100781.45
2018-12-20T18:31:24.260Z,100777.75
2018-12-20T18:33:50.118Z,100776.42
2018-12-20T18:36:16.064Z,100777.41
2018-12-20T18:38:41.911Z,100779.58
2018-12-20T18:41:07.731Z,100771.41
2018-12-20T18:43:33.442Z,100768.39
2018-12-20T18:45:59.255Z,100770.36
2018-12-20T18:48:25.045Z,100776.73
2018-12-20T18:50:50.796Z,100777.70
2018-12-20T18:53:16.507Z,100776.52
2018-12-20T18:55:42.236Z,100775.16
2018-12-20T18:58:08.055Z,100775.98
2018-12-20T19:00:35.951Z,100774.80
2018-12-20T19:03:01.788Z,100784.47
2018-12-20T19:05:27.516Z,100778.95
2018-12-20T19:07:53.377Z,100777.47
2018-12-20T19:10:19.101Z,100777.32
2018-12-20T19:12:44.826Z,100776.69
2018-12-20T19:15:10.638Z,100780.39
2018-12-20T19:17:36.462Z,100776.70
2018-12-20T19:20:02.791Z,100782.37
2018-12-20T19:22:28.655Z,100781.21
2018-12-20T19:24:54.383Z,100780.55
2018-12-20T19:27:20.227Z,100773.00
2018-12-20T19:29:45.948Z,100768.51
2018-12-20T19:32:11.690Z,100766.67
2018-12-20T19:34:37.614Z,100773.71
2018-12-20T19:37:03.435Z,100771.20
2018-12-20T19:39:29.263Z,100768.52
2018-12-20T19:41:57.002Z,100769.84
2018-12-20T19:44:22.729Z,100765.31
2018-12-20T19:46:48.527Z,100761.64
2018-12-20T19:49:14.243Z,100752.94
2018-12-20T19:51:39.973Z,100754.81
2018-12-20T19:54:05.704Z,100751.28
2018-12-20T19:56:31.407Z,100749.95
2018-12-20T19:58:57.135Z,100753.97
2018-12-20T20:01:22.856Z,100752.97
2018-12-20T20:03:48.690Z,100751.30
2018-12-20T20:06:14.410Z,100750.95
2018-12-20T20:08:40.234Z,100745.94
2018-12-20T20:11:05.946Z,100748.10
2018-12-20T20:13:31.670Z,100743.77
2018-12-20T20:15:57.387Z,100742.94
2018-12-20T20:18:23.118Z,100750.98
2018-12-20T20:20:48.843Z,100743.77
2018-12-20T20:23:14.662Z,100737.59
2018-12-20T20:25:40.371Z,100736.91
2018-12-20T20:28:06.210Z,100734.23
2018-12-20T20:30:32.140Z,100738.09
2018-12-20T20:32:57.866Z,100733.56
2018-12-20T20:35:23.681Z,100730.73
2018-12-20T20:37:49.506Z,100719.18
2018-12-20T20:40:15.223Z,100716.50
2018-12-20T20:42:40.934Z,100720.86
2018-12-20T20:45:06.854Z,100721.71
2018-12-20T20:47:32.574Z,100711.14
2018-12-20T20:49:58.282Z,100714.00
2018-12-20T20:52:24.015Z,100712.80
2018-12-20T20:54:49.851Z,100712.80
2018-12-20T20:57:15.678Z,100711.32
2018-12-20T20:59:41.488Z,100712.34
2018-12-20T21:02:07.212Z,100711.98
2018-12-20T21:04:32.946Z,100703.29
2018-12-20T21:06:58.767Z,100708.82
2018-12-20T21:09:24.507Z,100709.32
2018-12-20T21:11:50.314Z,100700.47
2018-12-20T21:14:16.034Z,100703.14
2018-12-20T21:16:41.847Z,100701.13
2018-12-20T21:19:07.562Z,100699.77
2018-12-20T21:21:33.277Z,100701.11
2018-12-20T21:23:59.002Z,100701.95
2018-12-20T21:26:24.814Z,100700.47
2018-12-20T21:28:50.634Z,100694.59
2018-12-20T21:31:16.367Z,100700.95
2018-12-20T21:33:42.093Z,100698.28
2018-12-20T21:36:07.816Z,100695.61
2018-12-20T21:38:33.551Z,100694.94
2018-12-20T21:40:59.404Z,100691.08
2018-12-20T21:43:25.142Z,100690.59
2018-12-20T21:45:50.967Z,100694.09
2018-12-20T21:48:16.810Z,100697.77
2018-12-20T21:50:49.571Z,100692.91
2018-12-20T21:53:15.301Z,100690.57
2018-12-20T21:55:41.022Z,100688.08
2018-12-20T21:58:06.762Z,100684.55
2018-12-20T22:00:32.483Z,100687.91
2018-12-20T22:02:58.225Z,100680.21
2018-12-20T22:05:24.057Z,100681.03
2018-12-20T22:07:49.770Z,100689.42
2018-12-20T22:10:15.491Z,100689.06
2018-12-20T22:12:41.211Z,100690.26
2018-12-20T22:15:07.038Z,100689.41
2018-12-20T22:17:32.855Z,100690.59
2018-12-20T22:19:58.958Z,100695.59
2018-12-20T22:22:24.931Z,100691.58
2018-12-20T22:24:50.665Z,100681.72
2018-12-20T22:27:16.591Z,100683.22
2018-12-20T22:29:47.202Z,100685.06
2018-12-20T22:32:14.603Z,100683.39
2018-12-20T22:34:40.722Z,100677.70
2018-12-20T22:37:06.462Z,100675.84
2018-12-20T22:39:33.012Z,100680.72
2018-12-20T22:41:59.125Z,100680.38
2018-12-20T22:44:24.863Z,100682.05
2018-12-20T22:46:50.601Z,100671.34
2018-12-20T22:49:16.329Z,100673.35
2018-12-20T22:51:42.482Z,100676.03
2018-12-20T22:54:08.518Z,100672.68
2018-12-20T22:56:34.627Z,100667.63
2018-12-20T22:59:00.704Z,100662.28
2018-12-20T23:01:26.531Z,100660.45
2018-12-20T23:03:52.398Z,100661.79
2018-12-20T23:06:18.419Z,100662.80
2018-12-20T23:08:44.135Z,100659.27
2018-12-20T23:11:09.958Z,100657.93
2018-12-20T23:13:36.052Z,100654.43
2018-12-20T23:16:02.233Z,100647.06
2018-12-20T23:18:28.452Z,100643.87
2018-12-20T23:20:54.501Z,100645.22
2018-12-20T23:23:20.573Z,100648.23
2018-12-20T23:25:46.746Z,100639.00
2018-12-20T23:28:12.479Z,100641.50
2018-12-20T23:30:38.214Z,100639.83
2018-12-20T23:33:03.918Z,100638.67
2018-12-20T23:35:29.647Z,100639.83
2018-12-20T23:37:55.463Z,100629.63
2018-12-20T23:40:21.204Z,100628.11
2018-12-20T23:42:46.930Z,100627.28
2018-12-20T23:45:12.670Z,100628.27
2018-12-20T23:47:38.687Z,100624.58
2018-12-20T23:50:04.823Z,100626.92
2018-12-20T23:52:33.496Z,100626.25
2018-12-20T23:54:59.322Z,100622.41
2018-12-20T23:57:25.158Z,100616.20
2018-12-20T23:59:50.874Z,100609.99
